Alpena, MI

10:37 AM EDT on October 23, 2014 (GMT -0400)
Alpena County Regional | Change Station
CLOSE
Current Station
Airport
Location: Alpena,
Elevation: 689 ft
Nearby Weather Stations

Elev 689 ft 45.07 °N, 83.56 °W | Updated 43 minutes ago

Clear
Clear
34 °F
Feels Like 31 °F
N
4
Wind Variable Wind from West

Today
High -- | Low -- °F
--% Chance of Precip.
Yesterday
High -- | Low -- °F
Precip. -- in
8:00 AM 6:35 PM
Waning Crescent, 0% visible
Pressure 30.26 in
Visibility 10.0 miles
Clouds Clear
Windchill 31 °F
Dew Point 33 °F
Humidity 96%
Rainfall 0.00 in
Snow Depth Not available.
UV 1 out of 12
Pollen .30 out of 12
Air Quality Not available.
Flu Activity Not available.
METAR KAPN 231354Z AUTO 26003KT 10SM CLR 01/01 A3023 RMK AO2 SLP245 T00110006

More Conditions Fewer Conditions

Pressure 30.26 in
Visibility 10.0 miles
Clouds Clear
Windchill 31 °F
Dew Point 33 °F
Humidity 96%
Rainfall 0.00 in
Snow Depth Not available.
UV 1 out of 12
Pollen .30 out of 12
Air Quality Not available.
Flu Activity Not available.
METAR KAPN 231354Z AUTO 26003KT 10SM CLR 01/01 A3023 RMK AO2 SLP245 T00110006

More Conditions Fewer Conditions

Nowcast | as of 10:00 am EDT on October 23, 2014

At 11 am...mostly clear. Temperature 41. Light winds. At 1 PM...mostly clear. Temperature 50. Light winds. At 3 PM...mostly clear. Temperature 53. Light winds. At 5 PM...mostly clear. Temperature 52. Light winds.

×

10-Day Weather Forecast

Almanac

Astronomy

Oct. 23, 2014 Rise Set
Actual Time 8:00 AM EDT 6:35 PM EDT
Civil Twilight 7:30 AM EDT 7:05 PM EDT
Nautical Twilight 6:55 AM EDT 7:39 PM EDT
Astronomical Twilight 6:21 AM EDT 8:13 PM EDT
Moon 7:38 AM EDT 6:36 PM EDT
Length of Visible Light 11h 35m
Length of Day
10h 35m
Tomorrow will be 2m 56s shorter.
Waning Crescent, 0% of the Moon is Illuminated
Today
Waning Crescent
Oct 23
New
Oct 30
First Quarter
Nov 6
Full
Nov 14
Last Quarter

Today's Extremes

State Highs State Lows

Community

WunderPhotos

Upload Photos

1,764,268 photos uploaded!

WunderBlogs® & News

Nearby

Snow Depth

Station Depth Elevation
No new snow has been reported.

Earthquake Activity

City Distance Mag. Time & Date
No recent earthquake activity has been reported nearby.
Minimum magnitude displayed is 2.5.

Coastal Water Temperatures

Place Temperature
Alpena, MI 55.9 °F

Nearby Weather Stations